Time;durP1;ratioP1;P1;durP2;ratioP2;P2;SDS_P1;SDS_P2;PMS_P1;PMS_P2;Temp;Humidity;BMP_temperature;BMP_pressure;BME280_temperature;BME280_humidity;BME280_pressure;Samples;Min_cycle;Max_cycle;Signal;HPM_P1;HPM_P2
2022/04/04 00:00:07;;;;;;;11.50;3.70;;;;;;;;;;5021049;28;20269;-68
2022/04/04 00:02:32;;;;;;;10.07;3.10;;;;;;;;;;5019075;28;20190;-68
2022/04/04 00:04:58;;;;;;;7.03;2.80;;;;;;;;;;5028065;28;20256;-67
2022/04/04 00:07:23;;;;;;;6.73;2.80;;;;;;;;;;5021007;28;20280;-68
2022/04/04 00:09:48;;;;;;;6.23;3.00;;;;;;;;;;5023749;28;20268;-68
2022/04/04 00:12:14;;;;;;;4.80;2.80;;;;;;;;;;5021251;28;20166;-68
2022/04/04 00:14:39;;;;;;;4.77;2.37;;;;;;;;;;5023600;28;20653;-68
2022/04/04 00:17:05;;;;;;;4.77;2.90;;;;;;;;;;5027611;28;20186;-68
2022/04/04 00:19:31;;;;;;;4.60;2.57;;;;;;;;;;5021302;28;20174;-68
2022/04/04 00:21:56;;;;;;;4.93;2.77;;;;;;;;;;5027019;28;20205;-68
2022/04/04 00:24:22;;;;;;;6.47;2.83;;;;;;;;;;5021326;28;20600;-68
2022/04/04 00:26:47;;;;;;;6.30;2.70;;;;;;;;;;5026768;28;20178;-67
2022/04/04 00:29:13;;;;;;;6.37;3.07;;;;;;;;;;5028915;28;20613;-67
2022/04/04 00:31:38;;;;;;;8.87;3.03;;;;;;;;;;5023892;28;20202;-67
2022/04/04 00:34:03;;;;;;;5.20;2.97;;;;;;;;;;5020388;28;20186;-71
2022/04/04 00:36:29;;;;;;;4.40;2.70;;;;;;;;;;5025017;28;20174;-68
2022/04/04 00:38:54;;;;;;;9.37;3.20;;;;;;;;;;5025132;28;20227;-68
2022/04/04 00:41:20;;;;;;;6.77;3.27;;;;;;;;;;5019308;28;20237;-69
2022/04/04 00:43:51;;;;;;;8.37;3.30;;;;;;;;;;5026190;28;20248;-69
2022/04/04 00:46:16;;;;;;;7.30;3.40;;;;;;;;;;5016507;28;20637;-68
2022/04/04 00:48:41;;;;;;;5.27;3.10;;;;;;;;;;5017451;28;20187;-67
2022/04/04 00:51:07;;;;;;;5.90;3.27;;;;;;;;;;5023367;28;20185;-68
2022/04/04 00:53:32;;;;;;;7.17;3.47;;;;;;;;;;5025758;28;20236;-68
2022/04/04 00:55:59;;;;;;;6.30;3.10;;;;;;;;;;5037793;28;20296;-67
2022/04/04 00:58:27;;;;;;;7.53;3.70;;;;;;;;;;5015026;28;20245;-65
2022/04/04 01:00:53;;;;;;;9.17;3.73;;;;;;;;;;5025685;28;20536;-67
2022/04/04 01:03:18;;;;;;;11.43;3.90;;;;;;;;;;5026847;28;20178;-67
2022/04/04 01:05:44;;;;;;;6.70;3.50;;;;;;;;;;5021070;28;20700;-67
2022/04/04 01:08:13;;;;;;;4.83;3.33;;;;;;;;;;5023042;28;20227;-68
2022/04/04 01:10:43;;;;;;;6.60;3.40;;;;;;;;;;5025697;28;20190;-68
2022/04/04 01:13:10;;;;;;;6.97;3.13;;;;;;;;;;5016983;28;20737;-68
2022/04/04 01:15:36;;;;;;;5.43;3.40;;;;;;;;;;5025048;28;20665;-68
2022/04/04 01:18:03;;;;;;;5.37;3.73;;;;;;;;;;5017559;28;20289;-68
2022/04/04 01:20:28;;;;;;;8.00;4.20;;;;;;;;;;5019651;28;20565;-67
2022/04/04 01:22:53;;;;;;;8.73;4.40;;;;;;;;;;5012520;28;20187;-68
2022/04/04 01:25:27;;;;;;;8.33;4.87;;;;;;;;;;5022873;28;20182;-68
2022/04/04 01:27:53;;;;;;;7.83;4.70;;;;;;;;;;5020721;28;20182;-68
2022/04/04 01:30:18;;;;;;;11.77;4.67;;;;;;;;;;5020435;28;20708;-68
2022/04/04 01:32:44;;;;;;;8.03;4.97;;;;;;;;;;5027242;28;20194;-68
2022/04/04 01:35:10;;;;;;;11.67;5.03;;;;;;;;;;5023545;28;20186;-68
2022/04/04 01:37:37;;;;;;;10.10;4.97;;;;;;;;;;5026070;28;20523;-68
2022/04/04 01:40:04;;;;;;;9.27;5.00;;;;;;;;;;5019666;28;20722;-68
2022/04/04 01:42:30;;;;;;;11.37;5.10;;;;;;;;;;5016930;28;20725;-67
2022/04/04 01:44:56;;;;;;;7.47;5.00;;;;;;;;;;5014827;28;20183;-69
2022/04/04 01:47:21;;;;;;;9.63;5.10;;;;;;;;;;5021349;28;20180;-69
2022/04/04 01:49:46;;;;;;;10.03;4.70;;;;;;;;;;5017177;28;20185;-68
2022/04/04 01:52:12;;;;;;;8.60;5.40;;;;;;;;;;5025407;28;20204;-67
2022/04/04 01:54:37;;;;;;;9.03;5.23;;;;;;;;;;5023992;28;20216;-68
2022/04/04 01:57:03;;;;;;;9.57;5.43;;;;;;;;;;5021054;28;20178;-68
2022/04/04 01:59:28;;;;;;;10.63;5.27;;;;;;;;;;5023190;28;20178;-68
2022/04/04 02:01:53;;;;;;;8.87;5.73;;;;;;;;;;5027149;28;20561;-68
2022/04/04 02:04:19;;;;;;;11.60;6.13;;;;;;;;;;5008055;28;20747;-68
2022/04/04 02:06:44;;;;;;;10.33;6.27;;;;;;;;;;5020711;28;20527;-68
2022/04/04 02:09:10;;;;;;;11.07;5.90;;;;;;;;;;5022508;28;20264;-68
2022/04/04 02:11:35;;;;;;;12.40;6.00;;;;;;;;;;5019453;28;20590;-68
2022/04/04 02:14:02;;;;;;;11.97;6.97;;;;;;;;;;5020405;28;20240;-68
2022/04/04 02:16:28;;;;;;;17.80;7.03;;;;;;;;;;5025008;28;20186;-68
2022/04/04 02:18:53;;;;;;;9.70;6.23;;;;;;;;;;5025612;28;20193;-68
2022/04/04 02:21:19;;;;;;;13.23;6.47;;;;;;;;;;5016577;28;20194;-68
2022/04/04 02:23:44;;;;;;;10.90;6.60;;;;;;;;;;5023030;28;20383;-68
2022/04/04 02:26:10;;;;;;;13.50;6.57;;;;;;;;;;5016885;28;20170;-68
2022/04/04 02:28:36;;;;;;;9.47;6.30;;;;;;;;;;5022410;28;20193;-68
2022/04/04 02:31:01;;;;;;;11.33;6.37;;;;;;;;;;5018533;28;20198;-68
2022/04/04 02:33:27;;;;;;;11.87;5.77;;;;;;;;;;5024296;28;20655;-68
2022/04/04 02:35:53;;;;;;;10.63;6.50;;;;;;;;;;5021300;28;20186;-68
2022/04/04 02:38:21;;;;;;;11.20;6.73;;;;;;;;;;5016697;28;20529;-68
2022/04/04 02:40:47;;;;;;;10.60;6.53;;;;;;;;;;5022048;28;20201;-69
2022/04/04 02:43:13;;;;;;;12.37;6.23;;;;;;;;;;5025845;28;20242;-68
2022/04/04 02:45:38;;;;;;;16.40;6.80;;;;;;;;;;5024629;28;20186;-68
2022/04/04 02:48:04;;;;;;;11.37;6.53;;;;;;;;;;5023116;28;20193;-68
2022/04/04 02:50:30;;;;;;;11.80;7.20;;;;;;;;;;5013994;28;20655;-68
2022/04/04 02:52:56;;;;;;;12.47;6.97;;;;;;;;;;5013743;28;20186;-68
2022/04/04 02:58:06;;;;;;;11.83;6.67;;;;;;;;;;5021980;28;20199;-68
2022/04/04 03:00:31;;;;;;;12.40;6.50;;;;;;;;;;5026282;28;20197;-68
2022/04/04 03:02:57;;;;;;;10.43;6.60;;;;;;;;;;5023784;28;20196;-68
2022/04/04 03:05:23;;;;;;;10.80;6.40;;;;;;;;;;5025458;28;20178;-69
2022/04/04 03:07:50;;;;;;;12.73;6.77;;;;;;;;;;5026403;28;20341;-68
2022/04/04 03:10:16;;;;;;;9.37;6.07;;;;;;;;;;5015980;28;20654;-68
2022/04/04 03:12:43;;;;;;;11.90;6.27;;;;;;;;;;5026377;28;20178;-68
2022/04/04 03:15:11;;;;;;;11.63;7.00;;;;;;;;;;5018569;28;20650;-68
2022/04/04 03:17:39;;;;;;;12.30;6.33;;;;;;;;;;5019415;28;20586;-68
2022/04/04 03:20:09;;;;;;;13.27;7.07;;;;;;;;;;5015673;28;20209;-68
2022/04/04 03:22:37;;;;;;;10.87;6.47;;;;;;;;;;5022719;28;20178;-68
2022/04/04 03:25:04;;;;;;;10.87;5.73;;;;;;;;;;5020906;28;20184;-68
2022/04/04 03:27:29;;;;;;;10.17;6.03;;;;;;;;;;5024315;28;20209;-68
2022/04/04 03:29:54;;;;;;;14.97;6.83;;;;;;;;;;5017154;28;20638;-68
2022/04/04 03:32:20;;;;;;;12.40;6.20;;;;;;;;;;5021806;28;20201;-68
2022/04/04 03:34:45;;;;;;;10.43;6.60;;;;;;;;;;5019796;28;20255;-68
2022/04/04 03:37:11;;;;;;;12.60;6.40;;;;;;;;;;5025499;28;20186;-68
2022/04/04 03:39:37;;;;;;;12.90;6.60;;;;;;;;;;5024169;28;20181;-68
2022/04/04 03:42:02;;;;;;;12.53;6.83;;;;;;;;;;5022791;28;20289;-68
2022/04/04 03:44:28;;;;;;;15.20;7.10;;;;;;;;;;5019456;28;20186;-68
2022/04/04 03:46:53;;;;;;;12.30;6.73;;;;;;;;;;5011152;28;20274;-68
2022/04/04 03:49:19;;;;;;;12.30;7.10;;;;;;;;;;5019480;28;20186;-68
2022/04/04 03:51:44;;;;;;;13.13;7.53;;;;;;;;;;5012424;28;20185;-69
2022/04/04 03:54:09;;;;;;;14.10;7.07;;;;;;;;;;5021218;28;20265;-68
2022/04/04 03:56:34;;;;;;;10.60;7.17;;;;;;;;;;5023046;28;20190;-68
2022/04/04 03:59:00;;;;;;;15.80;7.73;;;;;;;;;;5025120;28;20206;-68
2022/04/04 04:01:27;;;;;;;9.17;6.83;;;;;;;;;;5022537;28;20230;-68
2022/04/04 04:03:53;;;;;;;12.37;7.17;;;;;;;;;;5021373;28;20523;-68
2022/04/04 04:06:18;;;;;;;11.80;6.60;;;;;;;;;;5024185;28;20185;-68
2022/04/04 04:08:46;;;;;;;11.80;6.73;;;;;;;;;;5021108;28;20752;-68
2022/04/04 04:11:16;;;;;;;13.87;7.30;;;;;;;;;;5023533;28;20182;-68
2022/04/04 04:13:43;;;;;;;12.50;7.27;;;;;;;;;;5022735;28;20182;-68
2022/04/04 04:16:14;;;;;;;11.27;7.17;;;;;;;;;;5023868;28;20170;-68
2022/04/04 04:18:41;;;;;;;13.20;6.73;;;;;;;;;;5020320;28;20312;-68
2022/04/04 04:21:09;;;;;;;11.27;7.50;;;;;;;;;;5021716;28;20222;-68
2022/04/04 04:23:35;;;;;;;12.67;7.40;;;;;;;;;;5024564;28;20174;-68
2022/04/04 04:26:00;;;;;;;16.37;7.83;;;;;;;;;;5017841;28;20259;-68
2022/04/04 04:28:26;;;;;;;13.27;7.77;;;;;;;;;;5025119;28;20192;-68
2022/04/04 04:30:51;;;;;;;10.47;7.30;;;;;;;;;;5013294;28;20525;-68
2022/04/04 04:33:16;;;;;;;12.10;7.47;;;;;;;;;;5023658;28;20190;-68
2022/04/04 04:35:42;;;;;;;13.23;7.63;;;;;;;;;;5022573;28;20182;-68
2022/04/04 04:38:07;;;;;;;11.70;7.17;;;;;;;;;;5027858;28;20440;-68
2022/04/04 04:40:33;;;;;;;11.10;7.37;;;;;;;;;;5018652;28;20194;-67
2022/04/04 04:42:59;;;;;;;12.57;7.27;;;;;;;;;;5028201;28;20178;-67
2022/04/04 04:45:25;;;;;;;10.57;7.60;;;;;;;;;;5022394;28;20183;-67
2022/04/04 04:47:50;;;;;;;11.90;7.33;;;;;;;;;;5014593;28;20237;-68
2022/04/04 04:50:18;;;;;;;14.33;7.77;;;;;;;;;;5021262;28;20208;-68
2022/04/04 04:52:45;;;;;;;13.10;7.50;;;;;;;;;;5025716;28;20220;-68
2022/04/04 04:55:13;;;;;;;10.23;7.10;;;;;;;;;;5024995;28;20377;-68
2022/04/04 04:57:39;;;;;;;13.60;8.20;;;;;;;;;;5019317;28;20190;-68
2022/04/04 05:00:08;;;;;;;11.73;7.40;;;;;;;;;;5023567;28;20368;-68
2022/04/04 05:02:35;;;;;;;11.60;7.27;;;;;;;;;;5020648;28;20182;-68
2022/04/04 05:05:01;;;;;;;11.03;7.10;;;;;;;;;;5026649;28;20186;-68
2022/04/04 05:07:26;;;;;;;10.03;6.63;;;;;;;;;;5027880;28;20245;-68
2022/04/04 05:09:52;;;;;;;16.03;8.27;;;;;;;;;;5025109;28;20234;-68
2022/04/04 05:12:17;;;;;;;12.03;6.93;;;;;;;;;;5016836;28;20193;-68
2022/04/04 05:14:43;;;;;;;12.20;7.83;;;;;;;;;;5026635;28;20185;-68
2022/04/04 05:17:08;;;;;;;16.53;8.17;;;;;;;;;;5023341;28;20205;-68
2022/04/04 05:19:34;;;;;;;13.20;8.47;;;;;;;;;;5019392;28;21788;-69
2022/04/04 05:22:00;;;;;;;13.90;8.03;;;;;;;;;;5015221;28;20309;-68
2022/04/04 05:24:27;;;;;;;13.67;7.60;;;;;;;;;;5021272;28;20323;-68
2022/04/04 05:26:53;;;;;;;12.20;7.77;;;;;;;;;;5019063;28;20190;-67
2022/04/04 05:29:18;;;;;;;11.90;7.33;;;;;;;;;;5023971;28;20205;-68
2022/04/04 05:31:47;;;;;;;10.30;7.07;;;;;;;;;;5011847;28;20280;-68
2022/04/04 05:34:12;;;;;;;13.53;7.63;;;;;;;;;;5025138;28;20185;-67
2022/04/04 05:36:38;;;;;;;13.30;7.87;;;;;;;;;;5020933;28;20178;-67
2022/04/04 05:39:06;;;;;;;12.40;6.60;;;;;;;;;;5023394;28;20597;-70
2022/04/04 05:41:32;;;;;;;12.63;7.13;;;;;;;;;;5017090;28;20202;-68
2022/04/04 05:43:58;;;;;;;9.77;6.80;;;;;;;;;;5025326;28;20239;-67
2022/04/04 05:46:23;;;;;;;12.50;6.20;;;;;;;;;;5021562;28;20178;-70
2022/04/04 05:48:49;;;;;;;10.97;6.80;;;;;;;;;;5023069;28;20174;-67
2022/04/04 05:51:16;;;;;;;9.77;6.53;;;;;;;;;;5024102;28;20208;-68
2022/04/04 05:53:42;;;;;;;10.87;6.70;;;;;;;;;;5026939;28;20186;-68
2022/04/04 05:56:07;;;;;;;9.53;6.13;;;;;;;;;;5021866;28;20191;-67
2022/04/04 05:58:33;;;;;;;10.03;6.07;;;;;;;;;;5025872;28;20182;-67
2022/04/04 06:00:58;;;;;;;10.00;5.70;;;;;;;;;;5007744;28;20198;-68
2022/04/04 06:03:24;;;;;;;10.17;6.20;;;;;;;;;;5016105;28;20190;-70
2022/04/04 06:05:50;;;;;;;13.20;6.30;;;;;;;;;;5020843;28;20236;-68
2022/04/04 06:08:16;;;;;;;9.40;5.97;;;;;;;;;;5025722;28;20230;-68
2022/04/04 06:10:45;;;;;;;9.87;5.37;;;;;;;;;;5021060;28;20237;-68
2022/04/04 06:13:12;;;;;;;8.67;5.70;;;;;;;;;;5022724;28;20274;-69
2022/04/04 06:15:38;;;;;;;11.90;5.57;;;;;;;;;;5025482;28;20396;-69
2022/04/04 06:18:04;;;;;;;10.07;5.73;;;;;;;;;;5024936;28;20893;-68
2022/04/04 06:20:29;;;;;;;12.93;5.77;;;;;;;;;;5024643;28;20256;-68
2022/04/04 06:22:55;;;;;;;10.37;6.33;;;;;;;;;;5025428;28;20409;-68
2022/04/04 06:25:21;;;;;;;10.67;5.53;;;;;;;;;;5024908;28;20614;-68
2022/04/04 06:27:46;;;;;;;9.93;5.70;;;;;;;;;;5026092;28;20182;-67
2022/04/04 06:30:12;;;;;;;9.77;6.27;;;;;;;;;;5025134;28;20178;-68
2022/04/04 06:32:40;;;;;;;7.03;5.13;;;;;;;;;;5025651;28;20188;-67
2022/04/04 06:35:06;;;;;;;9.93;5.50;;;;;;;;;;5020781;28;20309;-67
2022/04/04 06:37:31;;;;;;;9.00;5.00;;;;;;;;;;5023532;28;20252;-69
2022/04/04 06:39:57;;;;;;;13.80;5.93;;;;;;;;;;5022460;28;20186;-68
2022/04/04 06:42:23;;;;;;;9.67;5.17;;;;;;;;;;5022272;28;20273;-68
2022/04/04 06:44:48;;;;;;;11.30;5.53;;;;;;;;;;5022855;28;20269;-70
2022/04/04 06:47:13;;;;;;;7.70;5.10;;;;;;;;;;5023521;28;20651;-67
2022/04/04 06:49:40;;;;;;;9.00;5.70;;;;;;;;;;5023081;28;20447;-69
2022/04/04 06:52:06;;;;;;;8.90;5.90;;;;;;;;;;5023533;28;20174;-68
2022/04/04 06:54:31;;;;;;;10.03;5.67;;;;;;;;;;5023777;28;20185;-68
2022/04/04 06:56:57;;;;;;;8.30;5.50;;;;;;;;;;5023415;28;20186;-69
2022/04/04 06:59:23;;;;;;;12.63;6.40;;;;;;;;;;5026149;28;20284;-69
2022/04/04 07:01:49;;;;;;;9.23;5.43;;;;;;;;;;5021808;28;20201;-68
2022/04/04 07:04:15;;;;;;;11.80;5.47;;;;;;;;;;5025630;28;20181;-68
2022/04/04 07:06:41;;;;;;;10.93;6.10;;;;;;;;;;5023189;28;20182;-68
2022/04/04 07:09:08;;;;;;;12.63;5.53;;;;;;;;;;5024415;28;21514;-69
2022/04/04 07:11:33;;;;;;;8.97;5.33;;;;;;;;;;5023204;28;20344;-68
2022/04/04 07:13:59;;;;;;;8.33;5.40;;;;;;;;;;5024444;28;20222;-68
2022/04/04 07:16:25;;;;;;;9.37;5.70;;;;;;;;;;5023924;28;20182;-68
2022/04/04 07:18:51;;;;;;;8.50;5.43;;;;;;;;;;5023463;28;20239;-68
2022/04/04 07:21:16;;;;;;;10.33;5.87;;;;;;;;;;5024523;28;20201;-68
2022/04/04 07:23:42;;;;;;;10.43;5.90;;;;;;;;;;5026931;28;20181;-69
2022/04/04 07:26:07;;;;;;;9.53;5.53;;;;;;;;;;5025659;28;20193;-69
2022/04/04 07:28:33;;;;;;;9.60;5.67;;;;;;;;;;5025091;28;20178;-68
2022/04/04 07:31:00;;;;;;;7.87;5.60;;;;;;;;;;5015694;28;20199;-68
2022/04/04 07:33:26;;;;;;;7.67;5.37;;;;;;;;;;5023231;28;20403;-68
2022/04/04 07:35:51;;;;;;;7.87;4.87;;;;;;;;;;5018325;28;20254;-69
2022/04/04 07:38:17;;;;;;;7.87;4.70;;;;;;;;;;5021393;28;20194;-69
2022/04/04 07:40:43;;;;;;;10.40;4.93;;;;;;;;;;5020285;28;20190;-68
2022/04/04 07:43:08;;;;;;;8.53;5.53;;;;;;;;;;5025831;28;20344;-68
2022/04/04 07:45:34;;;;;;;10.03;4.80;;;;;;;;;;5017316;28;20261;-70
2022/04/04 07:47:59;;;;;;;10.33;5.13;;;;;;;;;;5024228;28;20185;-68
2022/04/04 07:50:25;;;;;;;9.13;5.60;;;;;;;;;;5022763;28;20202;-68
2022/04/04 07:52:51;;;;;;;10.30;5.27;;;;;;;;;;5026179;28;20174;-68
2022/04/04 07:55:17;;;;;;;9.13;5.67;;;;;;;;;;5023590;28;20212;-68
2022/04/04 07:57:42;;;;;;;8.83;5.20;;;;;;;;;;5018684;28;20175;-68
2022/04/04 08:00:10;;;;;;;8.53;5.60;;;;;;;;;;5025262;28;20260;-68
2022/04/04 08:02:35;;;;;;;7.87;5.57;;;;;;;;;;5026447;28;20240;-68
2022/04/04 08:05:02;;;;;;;9.57;5.70;;;;;;;;;;5022686;28;20591;-69
2022/04/04 08:07:27;;;;;;;9.77;5.93;;;;;;;;;;5017143;28;20234;-69
2022/04/04 08:09:52;;;;;;;10.60;6.20;;;;;;;;;;5026057;28;20236;-68
2022/04/04 08:12:18;;;;;;;8.90;5.47;;;;;;;;;;5025692;28;20190;-68
2022/04/04 08:14:45;;;;;;;8.40;5.40;;;;;;;;;;5027536;28;20288;-69
2022/04/04 08:17:10;;;;;;;12.27;5.43;;;;;;;;;;5021492;28;20719;-69
2022/04/04 08:19:36;;;;;;;9.93;5.60;;;;;;;;;;5028274;28;20193;-69
2022/04/04 08:22:02;;;;;;;8.27;5.40;;;;;;;;;;5025124;28;20723;-69
2022/04/04 08:24:28;;;;;;;7.33;5.23;;;;;;;;;;5028669;28;20178;-69
2022/04/04 08:26:53;;;;;;;9.63;5.50;;;;;;;;;;5027241;28;20775;-68
2022/04/04 08:29:19;;;;;;;9.77;5.30;;;;;;;;;;5025373;28;20177;-70
2022/04/04 08:31:45;;;;;;;7.83;5.27;;;;;;;;;;5020673;28;20664;-69
2022/04/04 08:34:10;;;;;;;7.00;5.17;;;;;;;;;;5023064;28;20174;-68
2022/04/04 08:36:35;;;;;;;8.97;5.60;;;;;;;;;;5028409;28;20178;-69
2022/04/04 08:39:02;;;;;;;11.10;5.63;;;;;;;;;;5025363;28;20271;-69
2022/04/04 08:41:31;;;;;;;7.73;5.47;;;;;;;;;;5023596;28;20198;-68
2022/04/04 08:44:00;;;;;;;12.97;5.67;;;;;;;;;;5028617;28;20186;-69
2022/04/04 08:46:26;;;;;;;12.47;5.70;;;;;;;;;;5021511;28;20235;-69
2022/04/04 08:48:54;;;;;;;11.63;5.90;;;;;;;;;;5028394;28;20653;-69
2022/04/04 08:51:20;;;;;;;10.33;6.00;;;;;;;;;;5027486;28;20174;-69
2022/04/04 08:53:46;;;;;;;8.83;5.73;;;;;;;;;;5019500;28;20167;-69
2022/04/04 08:56:11;;;;;;;9.90;6.30;;;;;;;;;;5016685;28;20205;-69
2022/04/04 08:58:37;;;;;;;9.57;6.17;;;;;;;;;;5028286;28;20205;-69
2022/04/04 09:01:03;;;;;;;13.23;6.57;;;;;;;;;;5027192;28;20608;-69
2022/04/04 09:03:31;;;;;;;8.70;6.43;;;;;;;;;;5026897;28;20280;-70
2022/04/04 09:05:58;;;;;;;9.47;6.73;;;;;;;;;;5027218;28;20657;-69
2022/04/04 09:08:24;;;;;;;9.10;6.53;;;;;;;;;;5027576;28;20233;-69
2022/04/04 09:10:54;;;;;;;11.50;7.37;;;;;;;;;;5023270;28;20186;-70
2022/04/04 09:13:20;;;;;;;12.03;7.30;;;;;;;;;;5026117;28;20265;-69
2022/04/04 09:15:53;;;;;;;12.77;7.47;;;;;;;;;;5028021;28;20261;-68
2022/04/04 09:18:24;;;;;;;10.57;7.30;;;;;;;;;;5023794;28;20320;-68
2022/04/04 09:20:51;;;;;;;8.37;6.13;;;;;;;;;;5028089;28;20313;-69
2022/04/04 09:23:16;;;;;;;12.10;7.87;;;;;;;;;;5023412;28;20197;-68
2022/04/04 09:25:42;;;;;;;12.30;7.87;;;;;;;;;;5025771;28;20220;-68
2022/04/04 09:28:15;;;;;;;12.80;8.30;;;;;;;;;;5027031;28;20213;-70
2022/04/04 09:30:41;;;;;;;12.73;8.10;;;;;;;;;;5017841;28;20873;-70
2022/04/04 09:33:11;;;;;;;9.33;6.57;;;;;;;;;;5025398;28;20193;-69
2022/04/04 09:35:45;;;;;;;13.37;8.30;;;;;;;;;;5028577;28;20183;-69
2022/04/04 09:38:15;;;;;;;12.87;7.87;;;;;;;;;;5021220;28;20257;-68
2022/04/04 09:40:41;;;;;;;11.93;8.63;;;;;;;;;;5025253;28;20297;-69
2022/04/04 09:43:07;;;;;;;16.00;9.33;;;;;;;;;;5028573;28;20281;-69
2022/04/04 09:45:32;;;;;;;14.60;9.60;;;;;;;;;;5020035;28;20293;-69
2022/04/04 09:48:02;;;;;;;17.30;8.90;;;;;;;;;;5023796;28;20181;-69
2022/04/04 09:50:39;;;;;;;17.00;11.00;;;;;;;;;;5025755;28;20178;-70
2022/04/04 09:53:30;;;;;;;13.83;9.83;;;;;;;;;;5020717;28;20566;-69
2022/04/04 09:55:58;;;;;;;16.50;9.93;;;;;;;;;;5015782;28;20502;-69
2022/04/04 09:58:25;;;;;;;16.60;10.93;;;;;;;;;;5019008;28;20670;-69
2022/04/04 10:00:51;;;;;;;14.83;10.20;;;;;;;;;;5016765;28;21449;-70
2022/04/04 10:03:18;;;;;;;16.73;10.70;;;;;;;;;;5021531;28;20652;-69
2022/04/04 10:05:55;;;;;;;12.50;8.57;;;;;;;;;;5026609;28;20265;-70
2022/04/04 10:08:24;;;;;;;17.23;11.33;;;;;;;;;;5023598;28;20222;-71
2022/04/04 10:10:50;;;;;;;17.30;11.23;;;;;;;;;;5026310;28;20174;-69
2022/04/04 10:13:16;;;;;;;14.90;10.30;;;;;;;;;;5025435;28;20262;-71
2022/04/04 10:15:42;;;;;;;15.97;10.27;;;;;;;;;;5027286;28;20174;-70
2022/04/04 10:18:08;;;;;;;16.70;9.73;;;;;;;;;;5024855;28;20190;-71
2022/04/04 10:20:35;;;;;;;14.07;9.77;;;;;;;;;;5026134;28;20252;-69
2022/04/04 10:23:02;;;;;;;15.80;10.47;;;;;;;;;;5022550;28;20837;-71
2022/04/04 10:25:30;;;;;;;13.43;9.97;;;;;;;;;;5026268;28;20170;-70
2022/04/04 10:27:55;;;;;;;13.00;8.90;;;;;;;;;;5025704;28;20197;-72
2022/04/04 10:30:40;;;;;;;13.17;8.83;;;;;;;;;;5025544;28;20194;-71
2022/04/04 10:33:17;;;;;;;11.73;8.50;;;;;;;;;;5021316;28;20188;-70
2022/04/04 10:35:42;;;;;;;12.60;8.07;;;;;;;;;;5020870;28;20181;-70
2022/04/04 10:38:08;;;;;;;13.07;8.07;;;;;;;;;;5022453;28;20685;-70
2022/04/04 10:40:34;;;;;;;12.83;8.63;;;;;;;;;;5019287;28;20182;-70
2022/04/04 10:43:10;;;;;;;13.63;8.27;;;;;;;;;;5023591;28;20182;-73
2022/04/04 10:45:56;;;;;;;12.93;8.10;;;;;;;;;;5023667;28;20169;-70
2022/04/04 10:48:35;;;;;;;10.50;8.07;;;;;;;;;;5023249;28;20675;-70
2022/04/04 10:51:25;;;;;;;10.10;7.63;;;;;;;;;;5024936;28;20194;-70
2022/04/04 10:53:57;;;;;;;10.27;7.10;;;;;;;;;;5025574;28;20197;-69
2022/04/04 10:56:27;;;;;;;8.73;6.40;;;;;;;;;;5024053;28;20193;-69
2022/04/04 10:59:14;;;;;;;9.73;7.07;;;;;;;;;;5019970;28;20546;-68
2022/04/04 11:01:41;;;;;;;10.93;7.53;;;;;;;;;;5018915;28;20550;-69
2022/04/04 11:04:25;;;;;;;8.60;6.83;;;;;;;;;;5015990;28;20214;-69
2022/04/04 11:09:51;;;;;;;9.20;6.40;;;;;;;;;;5026241;28;20680;-69
2022/04/04 11:12:18;;;;;;;6.70;5.40;;;;;;;;;;5025081;28;20162;-69
2022/04/04 11:14:46;;;;;;;10.97;7.07;;;;;;;;;;5026599;28;20215;-69
2022/04/04 11:17:16;;;;;;;8.80;6.00;;;;;;;;;;5022934;28;20185;-69
2022/04/04 11:19:47;;;;;;;6.57;5.17;;;;;;;;;;5026552;28;20174;-71
2022/04/04 11:22:18;;;;;;;10.60;7.27;;;;;;;;;;5022818;28;20198;-69
2022/04/04 11:24:49;;;;;;;8.93;6.87;;;;;;;;;;5026481;28;20186;-71
2022/04/04 11:27:14;;;;;;;10.00;6.33;;;;;;;;;;5023234;28;20610;-70
2022/04/04 11:29:40;;;;;;;9.47;6.50;;;;;;;;;;5027076;28;20178;-69
2022/04/04 11:32:08;;;;;;;8.47;6.40;;;;;;;;;;5013866;28;20205;-70
2022/04/04 11:34:36;;;;;;;8.57;6.67;;;;;;;;;;5027022;28;20279;-69
2022/04/04 11:37:04;;;;;;;9.00;5.87;;;;;;;;;;5026198;28;20179;-69
2022/04/04 11:39:30;;;;;;;8.53;5.93;;;;;;;;;;5026375;28;20178;-71
2022/04/04 11:41:56;;;;;;;8.07;5.67;;;;;;;;;;5012578;28;20544;-69
2022/04/04 11:44:26;;;;;;;8.20;5.93;;;;;;;;;;5026600;28;20176;-69
2022/04/04 11:47:08;;;;;;;9.87;6.20;;;;;;;;;;5029813;28;20296;-69
2022/04/04 11:49:39;;;;;;;9.33;5.50;;;;;;;;;;5027081;28;20841;-69
2022/04/04 11:52:06;;;;;;;7.03;5.60;;;;;;;;;;5027574;28;20175;-70
2022/04/04 11:54:50;;;;;;;7.60;5.33;;;;;;;;;;5030412;28;20257;-69
2022/04/04 11:57:16;;;;;;;6.10;4.70;;;;;;;;;;5027012;28;20178;-69
2022/04/04 11:59:46;;;;;;;6.33;5.10;;;;;;;;;;5022765;28;20196;-69
2022/04/04 12:02:13;;;;;;;7.93;5.13;;;;;;;;;;5025714;28;20209;-70
2022/04/04 12:04:40;;;;;;;7.80;5.03;;;;;;;;;;5029759;28;20628;-70
2022/04/04 12:07:07;;;;;;;6.90;5.00;;;;;;;;;;5029776;28;20174;-69
2022/04/04 12:09:35;;;;;;;7.27;5.00;;;;;;;;;;5019355;28;20202;-69
2022/04/04 12:12:04;;;;;;;6.67;4.63;;;;;;;;;;5029589;28;20767;-69
2022/04/04 12:14:37;;;;;;;6.77;4.83;;;;;;;;;;5030351;28;20182;-70
2022/04/04 12:17:04;;;;;;;7.83;5.17;;;;;;;;;;5026714;28;20850;-70
2022/04/04 12:19:29;;;;;;;6.37;4.80;;;;;;;;;;5028130;28;20236;-69
2022/04/04 12:21:57;;;;;;;8.57;4.97;;;;;;;;;;5026666;28;20193;-70
2022/04/04 12:27:13;;;;;;;5.83;4.50;;;;;;;;;;5025151;28;20193;-69
2022/04/04 12:29:43;;;;;;;6.73;4.80;;;;;;;;;;5024159;28;20560;-69
2022/04/04 12:32:18;;;;;;;6.27;4.77;;;;;;;;;;5018675;28;20993;-69
2022/04/04 12:35:00;;;;;;;6.53;4.87;;;;;;;;;;5028183;28;20184;-70
2022/04/04 12:37:40;;;;;;;6.37;4.33;;;;;;;;;;5025427;28;20182;-69
2022/04/04 12:40:34;;;;;;;6.40;4.03;;;;;;;;;;5024162;28;20178;-71
2022/04/04 12:43:10;;;;;;;6.77;4.67;;;;;;;;;;5014986;28;20194;-70
2022/04/04 12:45:46;;;;;;;6.67;4.70;;;;;;;;;;5024624;28;20182;-69
2022/04/04 12:48:12;;;;;;;7.87;4.90;;;;;;;;;;5024171;28;20666;-69
2022/04/04 12:50:48;;;;;;;6.77;4.23;;;;;;;;;;5023823;28;20178;-69
2022/04/04 12:53:16;;;;;;;6.03;4.17;;;;;;;;;;5023518;28;20189;-69
2022/04/04 12:55:44;;;;;;;9.13;4.43;;;;;;;;;;5024918;28;20186;-69
2022/04/04 12:58:20;;;;;;;5.07;4.00;;;;;;;;;;5023556;28;20213;-70
2022/04/04 13:00:47;;;;;;;5.47;3.90;;;;;;;;;;5026227;28;20281;-69
2022/04/04 13:03:27;;;;;;;5.67;3.97;;;;;;;;;;5026253;28;20723;-70
2022/04/04 13:05:55;;;;;;;6.40;4.47;;;;;;;;;;5017837;28;20730;-69
2022/04/04 13:08:30;;;;;;;4.97;4.20;;;;;;;;;;5024537;28;20249;-71
2022/04/04 13:11:09;;;;;;;5.47;4.10;;;;;;;;;;5023563;28;20178;-69
2022/04/04 13:13:56;;;;;;;5.70;4.33;;;;;;;;;;5026206;28;20270;-69
2022/04/04 13:17:04;;;;;;;5.57;3.50;;;;;;;;;;5023275;28;20182;-69
2022/04/04 13:19:29;;;;;;;4.63;3.43;;;;;;;;;;5021461;28;20907;-69
2022/04/04 13:21:55;;;;;;;5.27;3.73;;;;;;;;;;5023737;28;20198;-69
2022/04/04 13:24:25;;;;;;;6.30;3.27;;;;;;;;;;5023092;28;20191;-70
2022/04/04 13:26:51;;;;;;;4.70;3.60;;;;;;;;;;5025900;28;20174;-70
2022/04/04 13:29:18;;;;;;;3.87;3.33;;;;;;;;;;5023584;28;20252;-70
2022/04/04 13:31:44;;;;;;;4.23;3.30;;;;;;;;;;5025547;28;20190;-70
2022/04/04 13:34:11;;;;;;;5.90;3.60;;;;;;;;;;5024830;28;20243;-69
2022/04/04 13:36:39;;;;;;;4.43;3.60;;;;;;;;;;5024372;28;20494;-70
2022/04/04 13:39:09;;;;;;;4.43;3.20;;;;;;;;;;5024726;28;20208;-70
2022/04/04 13:41:37;;;;;;;3.43;3.03;;;;;;;;;;5015917;28;20194;-69
2022/04/04 13:44:04;;;;;;;5.20;3.30;;;;;;;;;;5025897;28;20221;-70
2022/04/04 13:46:29;;;;;;;5.30;3.67;;;;;;;;;;5022572;28;20186;-70
2022/04/04 13:48:56;;;;;;;4.50;3.53;;;;;;;;;;5024513;28;20194;-70
2022/04/04 13:51:24;;;;;;;5.93;3.67;;;;;;;;;;5022453;28;20629;-70
2022/04/04 13:53:55;;;;;;;4.53;3.00;;;;;;;;;;5023045;28;20671;-70
2022/04/04 13:56:23;;;;;;;3.30;3.00;;;;;;;;;;5023412;28;20200;-70
2022/04/04 13:58:49;;;;;;;4.73;3.47;;;;;;;;;;5024177;28;20193;-70
2022/04/04 14:01:16;;;;;;;4.00;3.30;;;;;;;;;;5023155;28;20213;-71
2022/04/04 14:03:43;;;;;;;3.97;3.43;;;;;;;;;;5024294;28;20615;-70
2022/04/04 14:06:09;;;;;;;4.17;3.43;;;;;;;;;;5023495;28;20178;-70
2022/04/04 14:08:36;;;;;;;3.60;3.20;;;;;;;;;;5022901;28;20717;-72
2022/04/04 14:11:07;;;;;;;6.53;3.20;;;;;;;;;;5021887;28;20566;-70
2022/04/04 14:13:41;;;;;;;4.55;3.15;;;;;;;;;;5020779;28;20201;-70
2022/04/04 14:16:07;;;;;;;3.73;3.40;;;;;;;;;;5022718;28;20194;-71
2022/04/04 14:18:34;;;;;;;2.90;2.50;;;;;;;;;;5019113;28;20190;-72
2022/04/04 14:21:00;;;;;;;3.70;3.33;;;;;;;;;;5025079;28;20210;-72
2022/04/04 14:23:27;;;;;;;3.43;3.13;;;;;;;;;;5021380;28;20256;-72
2022/04/04 14:25:53;;;;;;;3.37;2.70;;;;;;;;;;5022942;28;20194;-74
2022/04/04 14:28:18;;;;;;;4.33;2.87;;;;;;;;;;5023717;28;20528;-73
2022/04/04 14:30:46;;;;;;;4.10;2.90;;;;;;;;;;5024225;28;20309;-74
2022/04/04 14:33:11;;;;;;;3.40;2.87;;;;;;;;;;5024558;28;20190;-73
2022/04/04 14:35:37;;;;;;;3.83;2.93;;;;;;;;;;5023491;28;20274;-74
2022/04/04 14:38:02;;;;;;;3.50;2.90;;;;;;;;;;5022687;28;20194;-75
2022/04/04 14:40:28;;;;;;;3.73;3.23;;;;;;;;;;5024661;28;20541;-73
2022/04/04 14:42:53;;;;;;;4.40;3.60;;;;;;;;;;5022145;28;20194;-74
2022/04/04 14:45:18;;;;;;;5.27;3.70;;;;;;;;;;5016482;28;20740;-73